Time;durP1;ratioP1;P1;durP2;ratioP2;P2;SDS_P1;SDS_P2;PMS_P1;PMS_P2;Temp;Humidity;BMP_temperature;BMP_pressure;BME280_temperature;BME280_humidity;BME280_pressure;Samples;Min_cycle;Max_cycle;Signal;HPM_P1;HPM_P2
2021/01/03 00:02:08;;;;;;;52.17;25.50;;;4.50;48.50;;;;;;5041914;28;20482;-86
2021/01/03 00:04:35;;;;;;;60.43;28.33;;;4.60;48.20;;;;;;5041741;28;20427;-85
2021/01/03 00:07:02;;;;;;;51.83;25.07;;;4.70;48.20;;;;;;5027394;28;20444;-85
2021/01/03 00:09:29;;;;;;;50.90;23.50;;;4.90;47.80;;;;;;5019980;28;20438;-86
2021/01/03 00:11:56;;;;;;;44.10;22.73;;;5.00;47.50;;;;;;5020342;28;20621;-86
2021/01/03 00:14:23;;;;;;;45.57;24.07;;;5.10;47.30;;;;;;5019092;28;21010;-86
2021/01/03 00:16:54;;;;;;;55.27;26.07;;;5.10;47.20;;;;;;5019093;28;20910;-86
2021/01/03 00:19:21;;;;;;;52.03;23.30;;;5.30;47.60;;;;;;5019011;28;20614;-86
2021/01/03 00:21:48;;;;;;;45.50;22.57;;;5.00;47.40;;;;;;5019171;28;20966;-86
2021/01/03 00:24:14;;;;;;;46.60;24.10;;;4.90;47.90;;;;;;5020558;28;20451;-86
2021/01/03 00:26:41;;;;;;;48.73;23.40;;;4.90;47.60;;;;;;5023837;28;20474;-86
2021/01/03 00:29:08;;;;;;;49.27;24.43;;;5.10;46.70;;;;;;5024571;28;20437;-86
2021/01/03 00:31:38;;;;;;;49.50;23.87;;;5.40;46.60;;;;;;5021553;28;20450;-86
2021/01/03 00:34:05;;;;;;;47.53;23.30;;;5.50;46.70;;;;;;5020705;28;20434;-86
2021/01/03 00:36:32;;;;;;;44.03;22.17;;;5.40;46.60;;;;;;5020777;28;20466;-86
2021/01/03 00:38:59;;;;;;;39.47;22.40;;;5.40;46.70;;;;;;5022103;28;20479;-86
2021/01/03 00:41:25;;;;;;;36.97;20.40;;;5.50;46.70;;;;;;5019730;28;20450;-86
2021/01/03 00:43:52;;;;;;;42.17;20.87;;;5.30;47.10;;;;;;5020973;28;20478;-86
2021/01/03 00:46:18;;;;;;;45.83;22.80;;;5.00;48.00;;;;;;5019755;28;20839;-87
2021/01/03 00:48:46;;;;;;;42.13;21.53;;;4.80;48.50;;;;;;5018795;28;20449;-87
2021/01/03 00:51:12;;;;;;;37.83;19.83;;;5.00;49.30;;;;;;5017953;28;20924;-86
2021/01/03 00:53:39;;;;;;;31.50;18.47;;;5.00;48.70;;;;;;5017702;28;20447;-86
2021/01/03 00:56:05;;;;;;;43.50;19.90;;;4.90;48.70;;;;;;5018078;28;20486;-87
2021/01/03 00:58:32;;;;;;;33.93;20.07;;;4.80;49.20;;;;;;5019292;28;20485;-87
2021/01/03 01:00:58;;;;;;;37.27;18.60;;;4.80;49.50;;;;;;5017692;28;20435;-87
2021/01/03 01:03:28;;;;;;;30.50;17.53;;;4.60;49.70;;;;;;5017471;28;20501;-86
2021/01/03 01:05:56;;;;;;;30.03;18.37;;;4.70;49.90;;;;;;5018114;28;20530;-87
2021/01/03 01:08:22;;;;;;;31.23;17.20;;;4.90;49.40;;;;;;5018279;28;20447;-87
2021/01/03 01:10:49;;;;;;;31.10;17.30;;;4.80;49.40;;;;;;5017915;28;20862;-86
2021/01/03 01:13:16;;;;;;;35.10;19.63;;;4.80;49.70;;;;;;5017935;28;20449;-86
2021/01/03 01:15:42;;;;;;;28.77;17.23;;;4.70;50.10;;;;;;5018182;28;21006;-86
2021/01/03 01:18:09;;;;;;;35.30;18.50;;;4.80;50.00;;;;;;5017537;28;20489;-86
2021/01/03 01:20:36;;;;;;;30.87;17.97;;;4.90;50.30;;;;;;5017903;28;20525;-86
2021/01/03 01:23:04;;;;;;;29.43;17.97;;;4.90;50.50;;;;;;5018930;28;20470;-86
2021/01/03 01:25:32;;;;;;;34.50;18.73;;;4.80;50.80;;;;;;5017400;28;20485;-86
2021/01/03 01:27:59;;;;;;;33.90;17.90;;;4.80;51.10;;;;;;5018528;28;20791;-86
2021/01/03 01:30:28;;;;;;;29.40;17.57;;;4.90;51.90;;;;;;5018309;28;20955;-86
2021/01/03 01:32:55;;;;;;;34.80;18.33;;;4.90;51.20;;;;;;5017927;28;20450;-85
2021/01/03 01:35:24;;;;;;;29.83;17.57;;;5.10;50.70;;;;;;5017082;28;20531;-86
2021/01/03 01:37:51;;;;;;;28.60;16.90;;;4.90;51.20;;;;;;5017528;28;20430;-86
2021/01/03 01:40:22;;;;;;;30.57;17.67;;;4.70;51.80;;;;;;5015770;28;20474;-86
2021/01/03 01:42:49;;;;;;;35.07;19.37;;;4.60;52.10;;;;;;5017091;28;20434;-86
2021/01/03 01:45:18;;;;;;;30.90;18.07;;;5.00;52.50;;;;;;5017902;28;20966;-85
2021/01/03 01:47:47;;;;;;;38.93;20.43;;;4.70;52.40;;;;;;5017665;28;20443;-85
2021/01/03 01:50:21;;;;;;;34.20;18.70;;;4.60;52.50;;;;;;5017358;28;20442;-85
2021/01/03 01:52:52;;;;;;;36.10;18.93;;;4.60;52.80;;;;;;5017097;28;20465;-85
2021/01/03 01:55:27;;;;;;;33.23;19.20;;;4.60;52.80;;;;;;5017596;28;20526;-85
2021/01/03 01:58:02;;;;;;;38.23;20.80;;;4.80;52.60;;;;;;5017979;28;20438;-85
2021/01/03 02:00:32;;;;;;;36.17;19.00;;;4.90;52.20;;;;;;5017672;28;20422;-85
2021/01/03 02:03:03;;;;;;;35.50;22.17;;;4.90;52.30;;;;;;5016632;28;20490;-85
2021/01/03 02:05:35;;;;;;;40.43;22.27;;;4.90;52.40;;;;;;5018118;28;20470;-86
2021/01/03 02:08:09;;;;;;;40.13;20.93;;;4.90;52.60;;;;;;5016189;28;20430;-85
2021/01/03 02:10:39;;;;;;;42.40;22.23;;;4.90;52.50;;;;;;5016440;28;20446;-85
2021/01/03 02:13:12;;;;;;;40.83;22.37;;;5.00;52.50;;;;;;5015993;28;20481;-85
2021/01/03 02:15:41;;;;;;;36.20;21.20;;;5.00;52.40;;;;;;5014919;28;20813;-85
2021/01/03 02:18:11;;;;;;;33.40;21.20;;;4.90;52.60;;;;;;5014694;28;20548;-85
2021/01/03 02:20:52;;;;;;;42.20;21.80;;;4.90;52.60;;;;;;5015226;28;20473;-85
2021/01/03 02:23:28;;;;;;;41.57;21.60;;;5.20;51.90;;;;;;5015238;28;20434;-86
2021/01/03 02:25:55;;;;;;;39.70;21.63;;;5.20;51.70;;;;;;5014600;28;20576;-85
2021/01/03 02:28:24;;;;;;;40.53;22.13;;;5.00;52.40;;;;;;5014268;28;20442;-86
2021/01/03 02:30:53;;;;;;;40.23;22.33;;;4.90;52.80;;;;;;5016717;28;20983;-86
2021/01/03 02:33:23;;;;;;;39.50;20.80;;;4.80;53.80;;;;;;5015547;28;20514;-86
2021/01/03 02:35:53;;;;;;;40.53;22.00;;;4.80;53.50;;;;;;5015269;28;20469;-86
2021/01/03 02:38:24;;;;;;;42.30;22.57;;;4.60;53.50;;;;;;5015248;28;20469;-86
2021/01/03 02:40:51;;;;;;;42.77;22.87;;;4.60;53.60;;;;;;5014585;28;20437;-85
2021/01/03 02:43:18;;;;;;;41.63;21.17;;;4.60;53.90;;;;;;5015919;28;20504;-86
2021/01/03 02:45:45;;;;;;;38.97;21.77;;;4.60;53.80;;;;;;5014848;28;20470;-87
2021/01/03 02:48:17;;;;;;;42.10;21.40;;;4.50;54.10;;;;;;5015405;28;20530;-86
2021/01/03 02:50:43;;;;;;;39.20;20.63;;;4.50;54.10;;;;;;5023581;28;20466;-86
2021/01/03 02:53:10;;;;;;;42.30;21.63;;;4.60;53.80;;;;;;5035115;28;20446;-85
2021/01/03 02:55:37;;;;;;;46.57;22.43;;;4.80;53.40;;;;;;5034928;28;20466;-86
2021/01/03 02:58:03;;;;;;;40.77;20.60;;;4.80;52.80;;;;;;5034541;28;20427;-86
2021/01/03 03:00:33;;;;;;;37.07;20.77;;;5.00;52.60;;;;;;5035265;28;20441;-86
2021/01/03 03:03:00;;;;;;;35.47;20.70;;;5.10;52.10;;;;;;5034845;28;20439;-86
2021/01/03 03:05:28;;;;;;;38.83;21.80;;;5.10;52.30;;;;;;5018183;28;20505;-86
2021/01/03 03:11:17;;;;;;;37.80;20.63;;;4.90;52.70;;;;;;5015862;28;20429;-86
2021/01/03 03:13:43;;;;;;;39.37;22.10;;;4.70;53.40;;;;;;5015632;28;20443;-86
2021/01/03 03:16:10;;;;;;;42.37;20.63;;;4.80;53.10;;;;;;5015999;28;20466;-87
2021/01/03 03:18:37;;;;;;;34.17;19.30;;;4.70;53.40;;;;;;5014446;28;21032;-86
2021/01/03 03:21:03;;;;;;;42.33;21.90;;;4.70;53.30;;;;;;5014643;28;20959;-86
2021/01/03 03:23:30;;;;;;;38.23;20.63;;;4.70;53.30;;;;;;5014559;28;20446;-86
2021/01/03 03:25:56;;;;;;;31.77;18.63;;;4.80;53.40;;;;;;5013973;28;20478;-86
2021/01/03 03:28:23;;;;;;;39.90;22.47;;;4.60;53.30;;;;;;5014166;28;20438;-86
2021/01/03 03:30:49;;;;;;;39.63;20.93;;;4.50;53.60;;;;;;5013758;28;20490;-86
2021/01/03 03:33:17;;;;;;;37.40;19.70;;;4.50;53.70;;;;;;5014328;28;20449;-86
2021/01/03 03:35:45;;;;;;;38.80;21.20;;;4.60;53.60;;;;;;5013827;28;20983;-86
2021/01/03 03:38:11;;;;;;;50.60;22.43;;;4.70;53.20;;;;;;5014412;28;20454;-86
2021/01/03 03:40:39;;;;;;;39.23;22.10;;;4.70;53.30;;;;;;5014027;28;20509;-87
2021/01/03 03:43:08;;;;;;;96.27;44.17;;;4.70;53.50;;;;;;5014114;28;20454;-86
2021/01/03 03:45:34;;;;;;;41.67;20.70;;;4.70;53.00;;;;;;5014117;28;20462;-86
2021/01/03 03:48:01;;;;;;;39.60;21.27;;;5.00;52.50;;;;;;5014429;28;20479;-87
2021/01/03 03:50:29;;;;;;;45.20;21.73;;;5.20;51.80;;;;;;5014347;28;20443;-87
2021/01/03 03:52:56;;;;;;;39.77;19.60;;;5.60;50.90;;;;;;5013929;28;20493;-86
2021/01/03 03:55:23;;;;;;;41.40;21.40;;;5.50;50.80;;;;;;5013675;28;20462;-86
2021/01/03 03:57:49;;;;;;;48.57;21.43;;;5.30;50.90;;;;;;5013930;28;20782;-86
2021/01/03 04:00:19;;;;;;;36.17;19.83;;;5.30;51.80;;;;;;5014120;28;20484;-86
2021/01/03 04:02:46;;;;;;;30.23;18.90;;;5.40;50.70;;;;;;5013517;28;20442;-86
2021/01/03 04:05:14;;;;;;;30.90;17.30;;;5.40;51.10;;;;;;5029377;28;20459;-86
2021/01/03 04:07:42;;;;;;;34.93;18.23;;;5.20;51.30;;;;;;5020583;28;20458;-87
2021/01/03 04:10:09;;;;;;;33.77;18.27;;;5.20;51.40;;;;;;5017726;28;20784;-86
2021/01/03 04:12:36;;;;;;;33.27;18.57;;;5.00;51.60;;;;;;5017356;28;20450;-86
2021/01/03 04:15:04;;;;;;;33.07;19.50;;;4.70;52.50;;;;;;5016652;28;20458;-87
2021/01/03 04:17:31;;;;;;;32.57;18.40;;;4.60;52.90;;;;;;5017464;28;20536;-86
2021/01/03 04:19:57;;;;;;;31.80;18.17;;;4.60;53.20;;;;;;5017907;28;20998;-87
2021/01/03 04:22:24;;;;;;;35.97;20.17;;;4.50;53.20;;;;;;5018108;28;20537;-89
2021/01/03 04:24:51;;;;;;;35.90;19.00;;;4.40;53.50;;;;;;5018198;28;20484;-86
2021/01/03 04:27:17;;;;;;;35.77;19.30;;;4.40;53.40;;;;;;5018955;28;20411;-86
2021/01/03 04:29:44;;;;;;;33.73;19.80;;;4.40;53.20;;;;;;5019004;28;20554;-87
2021/01/03 04:32:11;;;;;;;36.37;19.50;;;4.40;53.40;;;;;;5018881;28;20492;-87
2021/01/03 04:34:39;;;;;;;31.93;20.03;;;4.40;53.30;;;;;;5019764;28;20438;-87
2021/01/03 04:37:06;;;;;;;32.93;19.93;;;4.40;53.50;;;;;;5020784;28;20453;-87
2021/01/03 04:39:33;;;;;;;34.20;18.40;;;4.40;53.20;;;;;;5021021;28;20485;-87
2021/01/03 04:42:03;;;;;;;34.50;19.00;;;4.60;53.00;;;;;;5021430;28;20488;-87
2021/01/03 04:44:35;;;;;;;32.90;18.97;;;4.90;52.20;;;;;;5023665;28;20477;-87
2021/01/03 04:47:06;;;;;;;38.90;21.50;;;5.00;51.90;;;;;;5033752;28;20430;-87
2021/01/03 04:49:40;;;;;;;33.50;18.50;;;4.70;52.50;;;;;;5020709;28;20426;-87
2021/01/03 04:52:51;;;;;;;30.57;18.13;;;4.50;53.00;;;;;;5020800;28;20430;-87
2021/01/03 04:55:21;;;;;;;34.03;19.27;;;4.40;53.20;;;;;;5017501;28;20482;-87
2021/01/03 04:57:58;;;;;;;32.33;19.83;;;4.40;53.20;;;;;;5022695;28;20453;-87
2021/01/03 05:00:31;;;;;;;35.70;19.93;;;4.40;53.20;;;;;;5038926;28;20457;-84
2021/01/03 05:03:29;;;;;;;30.37;18.47;;;4.30;53.40;;;;;;5041173;28;20414;-84
2021/01/03 05:06:01;;;;;;;32.00;18.33;;;4.20;53.40;;;;;;4986743;28;20517;-87
2021/01/03 05:08:34;;;;;;;35.90;19.40;;;4.30;53.60;;;;;;5020353;28;20434;-87
2021/01/03 05:11:08;;;;;;;32.47;18.93;;;4.40;53.30;;;;;;5040961;28;20425;-86
2021/01/03 05:13:54;;;;;;;36.33;20.50;;;4.40;53.30;;;;;;5039843;28;20417;-87
2021/01/03 05:16:21;;;;;;;33.37;20.90;;;4.40;53.40;;;;;;5039926;28;20530;-87
2021/01/03 05:18:48;;;;;;;37.30;20.00;;;4.50;53.00;;;;;;5039488;28;20484;-87
2021/01/03 05:21:14;;;;;;;38.23;20.97;;;4.40;52.80;;;;;;5021078;28;20477;-87
2021/01/03 05:23:58;;;;;;;37.90;21.67;;;4.30;53.50;;;;;;5016496;28;20981;-87
2021/01/03 05:26:30;;;;;;;36.60;20.67;;;4.40;53.20;;;;;;5025362;28;20485;-87
2021/01/03 05:28:57;;;;;;;36.13;19.27;;;4.40;53.30;;;;;;5027498;28;20505;-87
2021/01/03 05:31:25;;;;;;;31.70;19.10;;;4.40;53.30;;;;;;5016439;28;20454;-87
2021/01/03 05:33:54;;;;;;;31.97;18.03;;;4.80;52.50;;;;;;5016107;28;20441;-87
2021/01/03 05:36:33;;;;;;;32.10;20.40;;;4.70;52.10;;;;;;5015914;28;20812;-87
2021/01/03 05:39:03;;;;;;;34.87;20.67;;;4.80;51.70;;;;;;5015480;28;20466;-86
2021/01/03 05:41:39;;;;;;;36.47;20.17;;;4.90;51.80;;;;;;5016507;28;20453;-87
2021/01/03 05:44:13;;;;;;;32.33;18.57;;;4.80;51.80;;;;;;5015576;28;20449;-87
2021/01/03 05:46:45;;;;;;;34.30;20.47;;;5.10;51.60;;;;;;5015441;28;20474;-87
2021/01/03 05:49:21;;;;;;;30.00;18.00;;;5.00;51.70;;;;;;5015434;28;20438;-87
2021/01/03 05:51:51;;;;;;;32.67;19.57;;;4.70;52.30;;;;;;5015319;28;20441;-87
2021/01/03 05:54:22;;;;;;;37.97;19.50;;;4.60;52.70;;;;;;5015449;28;20407;-87
2021/01/03 05:56:48;;;;;;;32.60;19.40;;;4.90;53.00;;;;;;5015150;28;20532;-87
2021/01/03 05:59:26;;;;;;;40.77;19.17;;;4.50;52.90;;;;;;5014975;28;20531;-87
2021/01/03 06:02:05;;;;;;;33.97;19.97;;;4.50;53.10;;;;;;5015322;28;20469;-87
2021/01/03 06:04:32;;;;;;;31.07;19.40;;;4.50;53.00;;;;;;5014893;28;20458;-87
2021/01/03 06:07:18;;;;;;;32.47;21.13;;;4.60;53.00;;;;;;5020233;28;20446;-87
2021/01/03 06:09:46;;;;;;;39.90;23.83;;;4.50;52.60;;;;;;5027577;28;20802;-87
2021/01/03 06:12:17;;;;;;;38.97;21.87;;;4.60;52.80;;;;;;5016002;28;20457;-87
2021/01/03 06:14:48;;;;;;;35.60;21.40;;;4.60;52.80;;;;;;5015195;28;20896;-87
2021/01/03 06:17:24;;;;;;;45.73;22.77;;;4.50;52.80;;;;;;5016648;28;20541;-87
2021/01/03 06:19:52;;;;;;;35.77;20.57;;;4.80;52.50;;;;;;5016130;28;20457;-87
2021/01/03 06:22:39;;;;;;;33.63;21.63;;;5.50;51.40;;;;;;5015060;28;21014;-87
2021/01/03 06:25:28;;;;;;;35.00;20.60;;;5.40;50.50;;;;;;5014870;28;20474;-87
2021/01/03 06:27:59;;;;;;;33.10;20.83;;;5.20;51.00;;;;;;5014417;28;20438;-87
2021/01/03 06:30:26;;;;;;;38.37;21.60;;;5.20;50.80;;;;;;5015026;28;20513;-87
2021/01/03 06:33:25;;;;;;;38.93;19.97;;;5.10;51.10;;;;;;5015040;28;20481;-87
2021/01/03 06:35:59;;;;;;;34.80;21.07;;;5.10;51.10;;;;;;5014917;28;20524;-87
2021/01/03 06:38:53;;;;;;;35.97;19.80;;;5.20;51.10;;;;;;5017613;28;20434;-87
2021/01/03 06:41:35;;;;;;;32.67;20.40;;;5.10;51.10;;;;;;5030864;28;20429;-87
2021/01/03 06:44:34;;;;;;;30.73;19.27;;;5.10;52.00;;;;;;5034583;28;20411;-87
2021/01/03 06:47:24;;;;;;;40.53;20.90;;;5.20;51.10;;;;;;5033605;28;20422;-87
2021/01/03 06:50:24;;;;;;;32.63;20.33;;;4.90;51.60;;;;;;5031593;28;20418;-87
2021/01/03 06:53:12;;;;;;;39.33;21.40;;;4.90;51.80;;;;;;5034160;28;20473;-87
2021/01/03 06:56:05;;;;;;;29.40;19.53;;;5.00;51.40;;;;;;5014950;28;20535;-87
2021/01/03 06:58:57;;;;;;;32.07;20.60;;;5.20;51.00;;;;;;4996731;28;20446;-87
2021/01/03 07:01:28;;;;;;;34.00;21.13;;;5.10;51.10;;;;;;5025902;28;20434;-87
2021/01/03 07:03:59;;;;;;;37.30;22.43;;;4.90;51.60;;;;;;5033923;28;20438;-87
2021/01/03 07:06:32;;;;;;;35.77;21.73;;;4.80;52.00;;;;;;5036547;28;20466;-86
2021/01/03 07:09:03;;;;;;;34.63;21.27;;;4.70;52.00;;;;;;5035542;28;20430;-87
2021/01/03 07:11:50;;;;;;;39.60;22.03;;;4.90;52.60;;;;;;5023352;28;20454;-87
2021/01/03 07:14:53;;;;;;;35.57;21.37;;;4.70;52.20;;;;;;5015007;28;20460;-87
2021/01/03 07:17:39;;;;;;;39.77;22.13;;;4.70;52.40;;;;;;5014920;28;20477;-87
2021/01/03 07:20:10;;;;;;;35.60;21.13;;;4.80;52.40;;;;;;5013960;28;20536;-87
2021/01/03 07:23:01;;;;;;;29.13;16.80;;;4.70;52.30;;;;;;5015170;28;20457;-87
2021/01/03 07:25:29;;;;;;;29.43;18.37;;;5.00;53.60;;;;;;5014490;28;20489;-87
2021/01/03 07:28:15;;;;;;;25.87;16.87;;;6.10;53.80;;;;;;5014823;28;20519;-88
2021/01/03 07:31:04;;;;;;;26.10;17.00;;;7.10;53.10;;;;;;5014443;28;20463;-88
2021/01/03 07:33:48;;;;;;;23.30;14.10;;;8.00;51.60;;;;;;5014825;28;20448;-87
2021/01/03 07:36:27;;;;;;;29.53;16.83;;;8.40;50.80;;;;;;5012733;28;20473;-87
2021/01/03 07:39:06;;;;;;;26.67;14.53;;;8.60;49.30;;;;;;5016195;28;20472;-87
2021/01/03 07:41:32;;;;;;;22.00;14.77;;;9.00;49.70;;;;;;5018833;28;20445;-87
2021/01/03 07:44:06;;;;;;;18.00;11.77;;;9.10;48.80;;;;;;5018328;28;20445;-88
2021/01/03 07:46:55;;;;;;;19.27;12.97;;;9.20;48.50;;;;;;5020876;28;20462;-88
2021/01/03 07:49:41;;;;;;;20.57;13.93;;;9.40;48.00;;;;;;5012878;28;20534;-88
2021/01/03 07:52:40;;;;;;;16.77;11.20;;;9.60;47.60;;;;;;5016447;28;20503;-87
2021/01/03 07:55:13;;;;;;;25.03;15.33;;;9.60;44.50;;;;;;5019324;28;20470;-87
2021/01/03 07:57:39;;;;;;;18.93;12.70;;;9.50;43.80;;;;;;5019596;28;20449;-87
2021/01/03 08:00:08;;;;;;;21.23;14.20;;;9.40;46.10;;;;;;5019641;28;20481;-87
2021/01/03 08:02:37;;;;;;;16.90;11.07;;;9.70;46.10;;;;;;5018347;28;20449;-87
2021/01/03 08:05:04;;;;;;;18.70;12.30;;;9.90;46.10;;;;;;5019209;28;20493;-87
2021/01/03 08:07:31;;;;;;;18.30;11.57;;;10.00;44.00;;;;;;5018706;28;20476;-87
2021/01/03 08:10:07;;;;;;;20.17;12.33;;;10.10;44.50;;;;;;5019121;28;20815;-88
2021/01/03 08:12:39;;;;;;;16.20;11.07;;;10.10;43.60;;;;;;5018028;28;20438;-88
2021/01/03 08:15:09;;;;;;;19.53;10.93;;;10.20;44.30;;;;;;5038932;28;20453;-87
2021/01/03 08:17:41;;;;;;;18.73;11.83;;;10.40;43.90;;;;;;5038675;28;20421;-87
2021/01/03 08:20:10;;;;;;;17.60;12.30;;;10.60;43.60;;;;;;5036978;28;20462;-87
2021/01/03 08:22:37;;;;;;;32.47;13.53;;;10.70;42.70;;;;;;5032857;28;20473;-87
2021/01/03 08:25:06;;;;;;;14.97;10.63;;;10.70;43.20;;;;;;5036750;28;20461;-87
2021/01/03 08:27:41;;;;;;;19.33;12.53;;;10.70;42.40;;;;;;5028214;28;20454;-86
2021/01/03 08:30:13;;;;;;;22.63;13.63;;;10.80;42.80;;;;;;5025489;28;20461;-87
2021/01/03 08:32:41;;;;;;;20.00;13.10;;;10.90;41.90;;;;;;5025895;28;20449;-88
2021/01/03 08:35:12;;;;;;;17.13;11.77;;;10.60;40.70;;;;;;5026096;28;20493;-87
2021/01/03 08:37:41;;;;;;;15.00;11.13;;;10.90;43.70;;;;;;5025928;28;20431;-88
2021/01/03 08:40:23;;;;;;;20.60;14.10;;;11.10;43.00;;;;;;5021843;28;20493;-88
2021/01/03 08:42:56;;;;;;;19.73;13.50;;;10.60;38.30;;;;;;5021743;28;20441;-88
2021/01/03 08:45:28;;;;;;;17.40;11.17;;;10.20;42.60;;;;;;5021739;28;20500;-87
2021/01/03 08:48:01;;;;;;;17.77;11.77;;;10.20;43.40;;;;;;5021466;28;20437;-87
2021/01/03 08:50:30;;;;;;;19.77;13.80;;;9.80;42.60;;;;;;5020609;28;20481;-87
2021/01/03 08:52:59;;;;;;;21.33;12.60;;;9.90;41.80;;;;;;5019935;28;20458;-88
2021/01/03 08:55:34;;;;;;;25.53;14.77;;;9.20;43.40;;;;;;5018581;28;20454;-87
2021/01/03 08:58:04;;;;;;;16.33;11.03;;;9.20;44.50;;;;;;5020730;28;20880;-87
2021/01/03 09:00:35;;;;;;;17.83;10.60;;;9.60;45.60;;;;;;5019567;28;20474;-87
2021/01/03 09:03:04;;;;;;;20.07;12.70;;;10.00;45.40;;;;;;5017708;28;20518;-87
2021/01/03 09:05:35;;;;;;;18.20;11.33;;;10.10;42.70;;;;;;5017811;28;21010;-87
2021/01/03 09:08:04;;;;;;;20.73;12.80;;;10.20;43.00;;;;;;5017805;28;20447;-87
2021/01/03 09:10:38;;;;;;;20.77;13.77;;;10.30;41.10;;;;;;5017741;28;20438;-86
2021/01/03 09:13:10;;;;;;;22.00;13.67;;;10.30;40.80;;;;;;5017159;28;20505;-86
2021/01/03 09:15:41;;;;;;;23.70;15.37;;;10.00;42.10;;;;;;5018038;28;20474;-87
2021/01/03 09:18:20;;;;;;;21.77;14.67;;;9.90;41.30;;;;;;5017636;28;20434;-87
2021/01/03 09:20:48;;;;;;;22.60;14.87;;;9.00;41.90;;;;;;5017074;28;20899;-87
2021/01/03 09:23:20;;;;;;;24.00;15.87;;;8.40;43.50;;;;;;5017407;28;20454;-87
2021/01/03 09:25:53;;;;;;;28.10;17.27;;;8.30;43.30;;;;;;5017346;28;20987;-86
2021/01/03 09:28:24;;;;;;;25.80;16.13;;;8.60;43.30;;;;;;5016996;28;20422;-86
2021/01/03 09:30:51;;;;;;;24.80;16.43;;;8.10;43.40;;;;;;5016778;28;20509;-86
2021/01/03 09:33:25;;;;;;;23.70;15.60;;;7.90;43.40;;;;;;5016630;28;20450;-86
2021/01/03 09:36:21;;;;;;;28.40;17.40;;;7.80;45.00;;;;;;5016785;28;20478;-87
2021/01/03 09:39:21;;;;;;;28.33;17.60;;;7.70;44.30;;;;;;5016994;28;20466;-87
2021/01/03 09:42:05;;;;;;;30.97;18.17;;;7.60;44.90;;;;;;5016510;28;20994;-87
2021/01/03 09:44:41;;;;;;;36.17;20.50;;;7.20;45.20;;;;;;5016878;28;20430;-87
2021/01/03 09:47:10;;;;;;;32.47;18.83;;;7.30;45.50;;;;;;5016736;28;20441;-86
2021/01/03 09:49:44;;;;;;;28.27;18.20;;;7.10;45.60;;;;;;5016795;28;20456;-86
2021/01/03 09:52:20;;;;;;;30.83;18.83;;;6.90;46.40;;;;;;5016488;28;20440;-86
2021/01/03 09:54:55;;;;;;;31.57;17.63;;;7.20;46.10;;;;;;5016409;28;20438;-86
2021/01/03 09:57:38;;;;;;;30.67;19.83;;;7.50;45.60;;;;;;5016414;28;20413;-86
2021/01/03 10:00:07;;;;;;;30.20;19.77;;;7.10;45.90;;;;;;5016143;28;20459;-86
2021/01/03 10:02:33;;;;;;;31.80;20.33;;;6.60;48.30;;;;;;5015137;28;20452;-87
2021/01/03 10:05:00;;;;;;;40.57;20.67;;;6.30;47.40;;;;;;5015912;28;20518;-86
2021/01/03 10:07:28;;;;;;;31.97;19.37;;;5.80;49.10;;;;;;5026842;28;20429;-85
2021/01/03 10:09:58;;;;;;;34.13;20.00;;;5.60;49.70;;;;;;5039458;28;20438;-84
2021/01/03 10:12:29;;;;;;;41.73;21.10;;;5.20;50.50;;;;;;5039342;28;20446;-86
2021/01/03 10:15:10;;;;;;;32.20;19.57;;;5.30;50.90;;;;;;5030106;28;20460;-86
2021/01/03 10:17:38;;;;;;;38.33;21.33;;;5.20;51.30;;;;;;5030640;28;20436;-86
2021/01/03 10:20:17;;;;;;;34.97;21.27;;;5.20;51.70;;;;;;5037823;28;20509;-87
2021/01/03 10:22:45;;;;;;;34.70;21.23;;;5.30;51.70;;;;;;5037474;28;20478;-87
2021/01/03 10:25:14;;;;;;;41.67;22.80;;;5.30;51.80;;;;;;5038463;28;20497;-85
2021/01/03 10:28:00;;;;;;;35.70;20.70;;;5.60;51.40;;;;;;5025312;28;20485;-87
2021/01/03 10:30:27;;;;;;;33.03;19.97;;;5.60;51.30;;;;;;5016917;28;20444;-87
2021/01/03 10:32:54;;;;;;;52.33;29.33;;;5.70;51.20;;;;;;5016646;28;20460;-87
2021/01/03 10:35:20;;;;;;;33.17;21.20;;;6.20;50.80;;;;;;5016443;28;20552;-87
2021/01/03 10:37:46;;;;;;;34.80;21.30;;;6.60;49.60;;;;;;5016456;28;20951;-87
2021/01/03 10:40:15;;;;;;;32.50;20.20;;;7.00;48.60;;;;;;5015948;28;20831;-86
2021/01/03 10:42:41;;;;;;;39.00;22.33;;;7.20;48.10;;;;;;5015912;28;20457;-87
2021/01/03 10:45:09;;;;;;;33.07;19.40;;;7.50;47.60;;;;;;5016026;28;20557;-87
2021/01/03 10:47:36;;;;;;;37.50;23.17;;;7.80;48.60;;;;;;5016494;28;20532;-87
2021/01/03 10:50:03;;;;;;;34.50;21.20;;;7.90;46.30;;;;;;5015819;28;20449;-87
2021/01/03 10:52:30;;;;;;;34.97;21.30;;;8.10;45.40;;;;;;5015290;28;20438;-87
2021/01/03 10:54:56;;;;;;;33.30;19.90;;;8.20;45.30;;;;;;5015425;28;20516;-87
2021/01/03 10:57:23;;;;;;;34.80;17.77;;;8.20;44.90;;;;;;5017443;28;20462;-88
2021/01/03 10:59:49;;;;;;;24.27;16.60;;;7.90;44.30;;;;;;5016729;28;20568;-88
2021/01/03 11:02:15;;;;;;;25.63;16.43;;;8.00;46.20;;;;;;5016589;28;20853;-88
2021/01/03 11:04:43;;;;;;;29.83;19.00;;;8.00;45.60;;;;;;5016197;28;20482;-88
2021/01/03 11:07:11;;;;;;;29.67;18.47;;;8.00;45.10;;;;;;5016059;28;20963;-88
2021/01/03 11:09:37;;;;;;;30.53;19.10;;;7.80;44.70;;;;;;5016200;28;20506;-88
2021/01/03 11:12:07;;;;;;;30.67;18.50;;;8.20;44.70;;;;;;5016184;28;20450;-89
2021/01/03 11:14:34;;;;;;;26.97;16.43;;;8.10;45.60;;;;;;5022026;28;20496;-89
2021/01/03 11:17:00;;;;;;;30.90;18.00;;;8.40;45.90;;;;;;5022338;28;20503;-89
2021/01/03 11:19:27;;;;;;;28.30;17.87;;;8.40;43.50;;;;;;5022284;28;20514;-89
2021/01/03 11:21:55;;;;;;;23.67;16.40;;;8.40;43.90;;;;;;5022884;28;20454;-89
2021/01/03 11:24:22;;;;;;;24.40;16.60;;;8.50;43.50;;;;;;5022482;28;20480;-89
2021/01/03 11:26:48;;;;;;;26.87;14.47;;;8.90;43.20;;;;;;5022490;28;20473;-89
2021/01/03 11:29:20;;;;;;;25.30;16.23;;;9.10;42.00;;;;;;5022247;28;20438;-89
2021/01/03 11:31:49;;;;;;;23.20;15.20;;;8.80;42.00;;;;;;5023425;28;20437;-89
2021/01/03 11:34:23;;;;;;;22.63;16.00;;;8.20;42.90;;;;;;5024491;28;20449;-89
2021/01/03 11:36:51;;;;;;;21.90;14.60;;;8.60;44.00;;;;;;5025283;28;20481;-89
2021/01/03 11:39:20;;;;;;;23.63;15.33;;;9.20;42.10;;;;;;5024851;28;21002;-89
2021/01/03 11:41:48;;;;;;;23.60;14.73;;;9.30;42.20;;;;;;5023625;28;20482;-89
2021/01/03 11:44:15;;;;;;;22.03;14.00;;;9.60;41.60;;;;;;5024539;28;20446;-89
2021/01/03 11:46:41;;;;;;;23.33;15.33;;;9.60;40.70;;;;;;5025591;28;20473;-89
2021/01/03 11:49:08;;;;;;;24.37;15.70;;;9.90;40.20;;;;;;5024872;28;20485;-89
2021/01/03 11:51:35;;;;;;;18.77;13.53;;;9.90;40.00;;;;;;5026089;28;20460;-89
2021/01/03 11:54:01;;;;;;;25.00;16.03;;;9.80;42.10;;;;;;5025446;28;20449;-89
2021/01/03 11:56:29;;;;;;;25.87;16.27;;;9.40;41.50;;;;;;5027531;28;20454;-88
2021/01/03 11:58:55;;;;;;;20.57;13.27;;;9.60;40.50;;;;;;5022761;28;20535;-90
2021/01/03 12:01:24;;;;;;;20.53;13.80;;;9.90;41.80;;;;;;5022719;28;20442;-89
2021/01/03 12:03:51;;;;;;;23.57;14.40;;;10.20;39.60;;;;;;5022067;28;20450;-89
2021/01/03 12:06:18;;;;;;;23.30;15.47;;;9.90;40.60;;;;;;5021428;28;20884;-89
2021/01/03 12:08:45;;;;;;;21.33;13.77;;;9.60;40.00;;;;;;5023371;28;20473;-89
2021/01/03 12:11:15;;;;;;;20.93;12.27;;;9.90;43.30;;;;;;5021708;28;20481;-89
2021/01/03 12:13:45;;;;;;;22.20;14.67;;;9.70;43.00;;;;;;5021908;28;21032;-89
2021/01/03 12:16:16;;;;;;;22.37;15.03;;;9.70;41.40;;;;;;5024863;28;20458;-89
2021/01/03 12:18:43;;;;;;;23.67;15.20;;;9.70;41.40;;;;;;5023015;28;20786;-89
2021/01/03 12:21:09;;;;;;;22.83;13.67;;;9.40;39.90;;;;;;5022303;28;20512;-89
2021/01/03 12:23:36;;;;;;;25.27;15.60;;;9.20;42.90;;;;;;5021892;28;20446;-89
2021/01/03 12:26:02;;;;;;;25.07;15.37;;;9.50;40.40;;;;;;5017523;28;20474;-89
2021/01/03 12:28:29;;;;;;;26.90;15.70;;;9.70;40.50;;;;;;5018656;28;20529;-89
2021/01/03 12:30:56;;;;;;;21.93;14.33;;;9.60;42.90;;;;;;5018277;28;20924;-89
2021/01/03 12:33:23;;;;;;;23.83;16.40;;;9.60;41.80;;;;;;5018774;28;21008;-87
2021/01/03 12:35:50;;;;;;;25.23;15.30;;;9.80;42.90;;;;;;5018819;28;20527;-86
2021/01/03 12:38:17;;;;;;;25.27;15.23;;;9.90;40.10;;;;;;5018319;28;20457;-86
2021/01/03 12:40:44;;;;;;;23.53;14.93;;;9.50;40.30;;;;;;5018840;28;20474;-87
2021/01/03 12:43:10;;;;;;;21.97;13.83;;;9.70;42.80;;;;;;5020398;28;20517;-87
2021/01/03 12:45:37;;;;;;;17.13;12.23;;;9.80;43.40;;;;;;5019092;28;20599;-87
2021/01/03 12:48:05;;;;;;;25.77;15.80;;;9.80;42.00;;;;;;5024051;28;20450;-87
2021/01/03 12:50:32;;;;;;;18.20;12.40;;;10.00;39.40;;;;;;5028946;28;20446;-88
2021/01/03 12:52:58;;;;;;;25.00;16.00;;;9.90;41.40;;;;;;5022986;28;20484;-88
2021/01/03 12:55:25;;;;;;;22.83;14.30;;;10.10;40.70;;;;;;5018356;28;20514;-88
2021/01/03 12:57:51;;;;;;;21.37;14.53;;;10.30;40.90;;;;;;5018467;28;20442;-88
2021/01/03 13:00:18;;;;;;;26.40;15.10;;;10.10;40.10;;;;;;5018442;28;20497;-88